Latest Weather Observations for Bankstown

IDN60901

Issued at 1:41 pm EST Saturday 29 April 2017 (issued every 10 minutes, with the page automatically refreshed every 10 minutes)

About weather observations | Map of Sydney area stations | Latest observations for Sydney area | Other Formats
Station Details ID: 066137 Name: BANKSTOWN AIRPORT AWS Lat: -33.92 Lon: 150.99 Height: 6.5 m
Data from the previous 72 hours. | See also: Recent months at Bankstown
Date/Time
EST
Temp
°C
App
Temp
°C
Dew
Point
°C
Rel
Hum
%
Delta-T
°C
Wind Press
QNH
hPa
Press
MSL
hPa
Rain since
9am
mm
Dir  Spd
km/h
Gust
km/h
Spd
kts
Gust
kts
29/01:30pm 21.1 19.3 7.3 41 7.1 S 6 9 3 5 1018.4 1018.4 0.0
29/01:00pm 21.1 19.4 8.4 44 6.6 SSE 7 13 4 7 1018.8 1018.8 0.0
29/12:30pm 20.2 17.6 6.2 40 7.0 WSW 9 15 5 8 1019.4 1019.4 0.0
29/12:00pm 19.9 17.7 7.9 46 6.2 SSW 9 15 5 8 1019.7 1019.7 0.0
29/11:30am 19.2 16.9 7.6 47 5.9 SW 9 15 5 8 1020.3 1020.3 0.0
29/11:00am 18.9 15.9 7.7 48 5.7 WSW 13 19 7 10 1020.6 1020.6 0.0
29/10:30am 18.2 14.8 7.6 50 5.4 SW 15 22 8 12 1020.8 1020.8 0.0
29/10:00am 16.9 13.9 7.8 55 4.6 SW 13 17 7 9 1020.9 1020.9 0.0
29/09:30am 15.3 12.5 7.1 58 4.0 W 11 15 6 8 1021.1 1021.1 0.0
29/09:00am 14.2 11.9 7.3 63 3.4 W 9 13 5 7 1021.1 1021.1 0.0
29/08:30am 12.9 10.6 7.4 69 2.7 W 9 11 5 6 1021.2 1021.2 0.0
29/08:00am 11.4 8.9 6.5 72 2.3 WNW 9 11 5 6 1020.9 1020.9 0.0
29/07:30am 10.2 8.3 7.4 83 1.3 NNW 7 9 4 5 1020.7 1020.7 0.0
29/07:00am 8.8 5.9 6.6 86 1.0 NNW 11 13 6 7 1020.5 1020.5 0.0
29/06:30am 7.7 5.0 5.8 88 0.9 NNW 9 11 5 6 1020.5 1020.5 0.0
29/06:00am 8.6 6.1 6.6 87 0.9 NNW 9 9 5 5 1020.3 1020.3 0.0
29/05:30am 8.7 6.6 6.8 88 0.9 NNW 7 7 4 4 1020.3 1020.3 0.0
29/05:00am 8.5 6.6 6.8 89 0.8 NNW 6 7 3 4 1020.3 1020.3 0.0
29/04:30am 8.7 6.7 7.0 89 0.8 N 7 9 4 5 1020.0 1020.0 0.0
29/04:00am 8.8 6.9 7.4 91 0.7 N 7 7 4 4 1019.8 1019.8 0.0
29/03:30am 9.2 7.6 7.8 91 0.7 N 6 7 3 4 1019.9 1019.9 0.0
29/03:00am 9.0 6.6 7.0 87 0.9 N 9 9 5 5 1019.8 1019.8 0.0
29/02:30am 8.8 6.8 7.1 89 0.8 W 7 7 4 4 1020.1 1020.1 0.0
29/02:00am 9.3 7.5 7.3 87 0.9 W 6 7 3 4 1020.3 1020.3 0.0
29/01:30am 9.7 8.1 8.1 90 0.8 W 6 7 3 4 1020.6 1020.6 0.0
29/01:00am 10.2 8.7 8.5 89 0.8 W 6 6 3 3 1020.8 1020.8 0.0
29/12:30am 10.5 9.0 8.3 86 1.1 W 6 7 3 4 1020.8 1020.8 0.0
29/12:00am 10.8 9.3 8.6 86 1.1 SW 6 6 3 3 1021.1 1021.1 0.0
 
Date/Time
EST
Temp
°C
App
Temp
°C
Dew
Point
°C
Rel
Hum
%
Delta-T
°C
Wind Press
QNH
hPa
Press
MSL
hPa
Rain since
9am
mm
Dir  Spd
km/h
Gust
km/h
Spd
kts
Gust
kts
28/11:30pm 10.6 10.2 8.4 86 1.1 CALM 0 0 0 0 1021.1 1021.1 0.0
28/11:00pm 10.7 10.4 8.8 88 0.9 CALM 0 0 0 0 1021.3 1021.3 0.0
28/10:30pm 11.2 10.2 8.9 86 1.1 SW 4 7 2 4 1021.5 1021.5 0.0
28/10:00pm 11.5 11.3 9.1 85 1.2 CALM 0 0 0 0 1021.6 1021.6 0.0
28/09:30pm 11.1 10.8 8.8 86 1.1 CALM 0 0 0 0 1021.6 1021.6 0.0
28/09:00pm 11.4 11.2 9.0 85 1.2 CALM 0 0 0 0 1021.5 1021.5 0.0
28/08:30pm 12.0 11.9 9.4 84 1.3 CALM 0 0 0 0 1021.3 1021.3 0.0
28/08:00pm 12.5 12.3 9.0 79 1.7 CALM 0 0 0 0 1021.3 1021.3 0.0
28/07:30pm 13.4 12.1 9.1 75 2.2 ESE 6 7 3 4 1021.3 1021.3 0.0
28/07:00pm 14.4 13.4 8.8 69 2.8 ESE 4 6 2 3 1021.1 1021.1 0.0
28/06:30pm 14.7 13.0 7.7 63 3.5 ESE 6 7 3 4 1021.0 1021.0 0.0
28/06:00pm 16.4 14.3 8.1 58 4.2 ESE 9 11 5 6 1020.7 1020.7 0.0
28/05:30pm 17.3 14.7 7.9 54 4.8 SE 11 17 6 9 1020.6 1020.6 0.0
28/05:00pm 18.3 15.0 8.0 51 5.2 SE 15 20 8 11 1020.4 1020.4 0.0
28/04:30pm 19.2 16.6 6.3 43 6.4 SE 9 13 5 7 1020.3 1020.3 0.0
28/04:00pm 19.8 17.6 6.2 41 6.8 NNE 7 11 4 6 1020.3 1020.3 0.0
28/03:30pm 19.9 18.0 6.6 42 6.7 NW 6 9 3 5 1020.3 1020.3 0.0
28/03:00pm 20.0 17.8 6.4 41 6.8 SSW 7 20 4 11 1020.3 1020.3 0.0
28/02:30pm 20.0 17.1 6.4 41 6.8 WSW 11 20 6 11 1020.3 1020.3 0.0
28/02:00pm 20.3 18.4 7.7 44 6.5 SSW 7 17 4 9 1020.4 1020.4 0.0
28/01:30pm 20.0 18.0 7.1 43 6.6 WSW 7 15 4 8 1020.7 1020.7 0.0
28/01:00pm 19.5 17.1 6.9 44 6.3 SW 9 15 5 8 1021.0 1021.0 0.0
28/12:30pm 18.9 16.0 6.4 44 6.2 WSW 11 22 6 12 1021.5 1021.5 0.0
28/12:00pm 18.6 16.4 7.7 49 5.5 SSW 9 19 5 10 1021.9 1021.9 0.0
28/11:30am 18.5 15.5 7.6 49 5.5 SW 13 19 7 10 1022.4 1022.4 0.0
28/11:00am 17.9 14.9 7.6 51 5.2 SW 13 19 7 10 1022.7 1022.7 0.0
28/10:30am 16.8 13.0 6.0 49 5.3 SW 15 22 8 12 1023.1 1023.1 0.0
28/10:00am 15.6 11.3 5.2 50 4.9 SW 17 20 9 11 1023.2 1023.2 0.0
28/09:30am 15.0 10.6 5.0 51 4.7 SW 17 24 9 13 1023.2 1023.2 0.0
28/09:00am 13.5 8.4 4.1 53 4.3 SW 20 30 11 16 1023.2 1023.2 0.2
28/08:30am 12.3 8.6 4.3 58 3.6 WSW 13 17 7 9 1022.9 1022.9 0.2
28/08:00am 10.7 7.4 4.4 65 2.8 SW 11 15 6 8 1022.8 1022.8 0.2
28/07:30am 9.4 6.8 4.2 70 2.3 SW 7 13 4 7 1022.5 1022.5 0.2
28/07:00am 8.5 7.2 4.3 75 1.8 CALM 0 7 0 4 1022.2 1022.2 0.2
28/06:30am 8.1 5.7 4.5 78 1.6 SW 6 7 3 4 1021.8 1021.8 0.2
28/06:00am 8.2 7.0 4.4 77 1.7 CALM 0 6 0 3 1021.6 1021.6 0.2
28/05:30am 8.8 6.3 4.8 76 1.8 SW 7 9 4 5 1021.3 1021.3 0.2
28/05:00am 8.9 6.1 5.1 77 1.7 SW 9 13 5 7 1021.1 1021.1 0.2
28/04:30am 8.8 6.3 5.0 77 1.7 WSW 7 9 4 5 1021.0 1021.0 0.2
28/04:00am 9.1 6.3 5.3 77 1.7 SW 9 13 5 7 1020.7 1020.7 0.2
28/03:30am 9.2 7.0 5.4 77 1.7 SW 6 9 3 5 1020.4 1020.4 0.2
28/03:00am 9.8 7.1 5.8 76 1.8 SW 9 13 5 7 1020.5 1020.5 0.2
28/02:30am 10.3 7.3 6.1 75 1.9 SW 11 17 6 9 1020.4 1020.4 0.2
28/02:00am 10.7 7.7 6.1 73 2.1 SW 11 15 6 8 1020.4 1020.4 0.2
28/01:30am 11.2 7.8 6.1 71 2.4 SW 13 20 7 11 1020.4 1020.4 0.2
28/01:00am 11.7 8.3 6.0 68 2.7 SW 13 17 7 9 1020.4 1020.4 0.2
28/12:30am 12.2 8.5 6.3 67 2.8 SSW 15 24 8 13 1020.2 1020.2 0.2
28/12:00am 12.5 9.3 6.8 68 2.7 SW 13 19 7 10 1020.0 1020.0 0.2
 
Date/Time
EST
Temp
°C
App
Temp
°C
Dew
Point
°C
Rel
Hum
%
Delta-T
°C
Wind Press
QNH
hPa
Press
MSL
hPa
Rain since
9am
mm
Dir  Spd
km/h
Gust
km/h
Spd
kts
Gust
kts
27/11:30pm 12.9 9.4 7.1 68 2.8 SSW 15 19 8 10 1019.8 1019.8 0.2
27/11:00pm 13.1 10.0 7.3 68 2.8 SW 13 17 7 9 1019.5 1019.5 0.2
27/10:30pm 13.0 10.2 7.0 67 2.9 SW 11 13 6 7 1019.2 1019.2 0.2
27/10:00pm 13.9 10.7 7.0 63 3.3 SW 13 19 7 10 1019.1 1019.1 0.2
27/09:30pm 14.7 12.0 7.3 61 3.6 SW 11 17 6 9 1018.9 1018.9 0.2
27/09:00pm 15.0 12.2 7.1 59 3.9 SW 11 13 6 7 1018.9 1018.9 0.2
27/08:30pm 15.7 13.0 7.2 57 4.2 SW 11 15 6 8 1018.7 1018.7 0.2
27/08:00pm 16.1 12.6 7.1 55 4.4 SSW 15 22 8 12 1018.8 1018.8 0.2
27/07:30pm 16.2 12.6 6.6 53 4.7 SSW 15 20 8 11 1018.4 1018.4 0.2
27/07:00pm 15.9 12.8 7.4 57 4.2 S 13 17 7 9 1018.1 1018.1 0.2
27/06:30pm 16.0 13.7 7.5 57 4.2 S 9 13 5 7 1017.7 1017.7 0.2
27/06:00pm 16.3 14.0 7.5 56 4.4 S 9 13 5 7 1017.3 1017.3 0.2
27/05:30pm 16.9 13.0 7.3 53 4.8 SSW 17 24 9 13 1016.8 1016.8 0.2
27/05:00pm 17.2 12.6 6.7 50 5.2 S 20 26 11 14 1016.5 1016.5 0.2
27/04:30pm 18.2 12.9 6.7 47 5.7 S 24 32 13 17 1016.1 1016.1 0.2
27/04:00pm 18.5 13.2 6.7 46 5.9 SSE 24 33 13 18 1015.8 1015.8 0.2
27/03:30pm 18.3 13.4 6.8 47 5.7 SSE 22 28 12 15 1015.6 1015.6 0.2
27/03:00pm 18.5 13.2 6.7 46 5.9 S 24 32 13 17 1015.4 1015.4 0.2
27/02:30pm 18.8 13.2 7.3 47 5.8 SSE 26 33 14 18 1015.1 1015.1 0.2
27/02:00pm 18.8 14.1 7.9 49 5.6 SSE 22 28 12 15 1014.9 1014.9 0.2
27/01:30pm 19.1 15.8 6.6 44 6.2 SSW 13 24 7 13 1014.7 1014.7 0.2
27/01:00pm 18.5 15.9 6.0 44 6.1 SSW 9 19 5 10 1014.8 1014.8 0.2
27/12:30pm 17.6 14.4 5.2 44 6.0 SSW 11 28 6 15 1015.1 1015.1 0.2
27/12:00pm 17.8 14.1 6.3 47 5.7 SW 15 20 8 11 1015.3 1015.3 0.2
27/11:30am 16.5 12.1 4.5 45 5.6 SW 17 24 9 13 1015.6 1015.6 0.0
27/11:00am 16.3 11.6 5.0 47 5.4 SW 19 30 10 16 1015.9 1015.9 0.0
27/10:30am 15.6 11.5 4.3 47 5.3 SW 15 22 8 12 1016.1 1016.1 0.0
27/10:00am 15.0 10.4 3.5 46 5.2 SW 17 22 9 12 1016.3 1016.3 0.0
27/09:30am 14.2 9.1 2.8 46 5.1 SW 19 24 10 13 1016.2 1016.2 0.0
27/09:00am 13.4 9.1 3.2 50 4.5 SW 15 19 8 10 1016.5 1016.5 1.0
27/08:30am 12.4 8.6 4.1 57 3.7 SW 13 19 7 10 1016.4 1016.4 1.0
27/08:00am 11.0 7.2 3.8 61 3.2 SW 13 17 7 9 1015.9 1015.9 1.0
27/07:30am 10.9 8.0 4.8 66 2.8 SW 9 13 5 7 1015.3 1015.3 1.0
27/07:00am 10.0 7.1 4.6 69 2.4 SW 9 15 5 8 1014.8 1014.8 1.0
27/06:30am 10.1 7.5 4.3 67 2.6 WSW 7 13 4 7 1014.2 1014.2 1.0
27/06:00am 10.1 6.8 4.5 68 2.5 SW 11 15 6 8 1013.8 1013.8 1.0
27/05:30am 10.4 7.4 4.3 66 2.7 SW 9 11 5 6 1013.5 1013.5 1.0
27/05:00am 10.6 8.0 4.3 65 2.8 SSW 7 13 4 7 1013.1 1013.1 1.0
27/04:30am 10.7 7.7 4.2 64 2.9 SSW 9 15 5 8 1012.7 1012.7 1.0
27/04:00am 10.9 8.0 4.6 65 2.8 SW 9 15 5 8 1012.4 1012.4 1.0
27/03:30am 11.7 8.8 4.7 62 3.2 SW 9 15 5 8 1012.4 1012.4 1.0
27/03:00am 12.5 8.8 4.7 59 3.6 SW 13 24 7 13 1012.3 1012.3 1.0
27/02:30am 12.7 9.2 5.6 62 3.3 SSW 13 20 7 11 1012.3 1012.3 1.0
27/02:00am 13.4 10.0 6.0 61 3.5 SW 13 19 7 10 1012.2 1012.2 1.0
27/01:30am 14.2 11.5 7.3 63 3.4 SW 11 17 6 9 1012.0 1012.0 1.0
27/01:00am 14.3 12.5 7.8 65 3.2 SW 7 11 4 6 1012.0 1012.0 1.0
27/12:30am 14.4 12.8 8.1 66 3.1 SW 6 7 3 4 1011.9 1011.9 1.0
27/12:00am 14.6 13.0 7.9 64 3.3 SW 6 7 3 4 1011.5 1011.5 1.0
 
Date/Time
EST
Temp
°C
App
Temp
°C
Dew
Point
°C
Rel
Hum
%
Delta-T
°C
Wind Press
QNH
hPa
Press
MSL
hPa
Rain since
9am
mm
Dir  Spd
km/h
Gust
km/h
Spd
kts
Gust
kts
26/11:30pm 14.6 12.4 7.9 64 3.3 WSW 9 13 5 7 1011.2 1011.2 1.0
26/11:00pm 14.6 12.1 8.1 65 3.3 SW 11 15 6 8 1011.0 1011.0 1.0
26/10:30pm 14.3 11.7 7.8 65 3.2 W 11 17 6 9 1010.9 1010.9 1.0
26/10:00pm 14.2 12.3 7.5 64 3.3 SW 7 9 4 5 1010.7 1010.7 1.0
26/09:30pm 14.2 11.9 7.3 63 3.4 SW 9 13 5 7 1010.5 1010.5 1.0
26/09:00pm 14.2 11.8 7.0 62 3.5 SW 9 13 5 7 1009.9 1009.9 1.0
26/08:30pm 14.2 11.8 7.0 62 3.5 WSW 9 13 5 7 1009.2 1009.2 1.0
26/08:00pm 14.1 11.7 6.9 62 3.5 WSW 9 13 5 7 1008.8 1008.8 1.0
26/07:30pm 13.8 11.1 7.3 65 3.2 W 11 15 6 8 1008.6 1008.6 1.0
26/07:00pm 13.6 11.0 7.8 68 2.9 WNW 11 17 6 9 1008.2 1008.2 1.0
26/06:30pm 13.8 10.2 8.2 69 2.8 WNW 17 20 9 11 1007.5 1007.5 1.0
26/06:00pm 13.9 11.1 8.5 70 2.7 W 13 22 7 12 1006.6 1006.6 1.0
26/05:30pm 13.5 11.0 9.6 77 2.0 NW 13 15 7 8 1005.2 1005.2 1.0
26/05:00pm 14.0 12.1 10.4 79 1.9 NNW 11 13 6 7 1005.1 1005.1 1.0
26/04:30pm 14.1 11.9 9.5 74 2.4 NW 11 15 6 8 1005.6 1005.6 1.0
26/04:00pm 13.7 11.7 10.3 80 1.8 NW 11 17 6 9 1005.8 1005.8 1.0
26/03:30pm 13.1 9.3 9.9 81 1.6 WSW 20 35 11 19 1005.9 1005.9 1.0
26/03:03pm 15.1 8.5 8.6 65 3.3 WSW 33 52 18 28 1005.4 1005.4 0.0
26/03:00pm 15.2 8.0 7.7 61 3.7 WSW 35 52 19 28 1005.3 1005.3 0.0
26/02:30pm 18.2 10.2 5.8 44 6.1 W 37 72 20 39 1004.2 1004.2 0.0
26/02:27pm 19.9 13.6 5.5 39 7.1 W 28 67 15 36 1003.8 1003.8 0.0
26/02:00pm 21.3 16.2 7.5 41 7.2 WNW 24 33 13 18 1003.0 1003.0 0.0

Latest Capital City Observations: Canberra | Sydney | Melbourne | Brisbane | Adelaide | Perth | Hobart | Darwin

Other Formats:

Comma delimited format used in spreadsheet applications
http://www.bom.gov.au/fwo/IDN60901/IDN60901.94765.axf

JavaScript Object Notation format (JSON) in row-major order
http://www.bom.gov.au/fwo/IDN60901/IDN60901.94765.json